createdAt,value
2019-05-22T00:01:59.177Z,13.40
2019-05-22T00:04:30.710Z,14.70
2019-05-22T00:07:03.630Z,13.10
2019-05-22T00:09:38.632Z,12.57
2019-05-22T00:12:11.800Z,12.30
2019-05-22T00:14:41.743Z,12.97
2019-05-22T00:17:15.885Z,12.10
2019-05-22T00:19:47.192Z,14.57
2019-05-22T00:22:30.964Z,10.17
2019-05-22T00:25:01.456Z,13.00
2019-05-22T00:27:32.824Z,12.70
2019-05-22T00:30:02.952Z,10.67
2019-05-22T00:32:33.844Z,10.83
2019-05-22T00:35:05.097Z,13.97
2019-05-22T00:37:34.945Z,9.67
2019-05-22T00:40:08.164Z,12.07
2019-05-22T00:42:42.244Z,11.07
2019-05-22T00:45:14.694Z,10.90
2019-05-22T00:47:44.783Z,12.23
2019-05-22T00:50:20.879Z,14.03
2019-05-22T00:53:05.476Z,14.80
2019-05-22T00:56:00.195Z,10.60
2019-05-22T00:58:40.184Z,10.07
2019-05-22T01:01:22.231Z,13.17
2019-05-22T01:03:53.209Z,13.03
2019-05-22T01:06:25.123Z,11.63
2019-05-22T01:08:56.326Z,12.33
2019-05-22T01:11:29.512Z,10.93
2019-05-22T01:14:01.449Z,14.83
2019-05-22T01:16:31.203Z,11.93
2019-05-22T01:19:02.660Z,11.83
2019-05-22T01:21:33.398Z,10.70
2019-05-22T01:24:04.499Z,14.17
2019-05-22T01:26:35.663Z,15.33
2019-05-22T01:29:05.867Z,9.87
2019-05-22T01:31:39.004Z,10.83
2019-05-22T01:34:13.030Z,9.87
2019-05-22T01:36:45.244Z,9.97
2019-05-22T01:39:43.364Z,9.63
2019-05-22T01:42:15.578Z,10.07
2019-05-22T01:44:59.764Z,13.00
2019-05-22T01:47:33.330Z,12.37
2019-05-22T01:50:02.583Z,9.97
2019-05-22T01:52:31.914Z,10.30
2019-05-22T01:55:01.278Z,11.00
2019-05-22T01:57:30.698Z,10.97
2019-05-22T01:59:59.987Z,8.07
2019-05-22T02:02:30.455Z,10.50
2019-05-22T02:05:01.907Z,9.20
2019-05-22T02:07:32.174Z,11.07
2019-05-22T02:10:02.525Z,9.73
2019-05-22T02:12:47.118Z,14.10
2019-05-22T02:15:16.760Z,13.23
2019-05-22T02:17:48.218Z,10.27
2019-05-22T02:20:17.767Z,12.27
2019-05-22T02:22:49.354Z,9.63
2019-05-22T02:25:19.202Z,11.27
2019-05-22T02:27:48.882Z,10.33
2019-05-22T02:30:21.395Z,11.77
2019-05-22T02:32:50.718Z,14.43
2019-05-22T02:35:21.669Z,10.37
2019-05-22T02:37:53.143Z,10.33
2019-05-22T02:40:27.220Z,13.87
2019-05-22T02:42:57.856Z,9.30
2019-05-22T02:45:27.496Z,11.63
2019-05-22T02:47:58.561Z,11.23
2019-05-22T02:50:29.730Z,11.13
2019-05-22T02:53:00.198Z,12.43
2019-05-22T02:55:30.241Z,9.63
2019-05-22T02:57:59.786Z,8.90
2019-05-22T03:00:33.834Z,11.17
2019-05-22T03:03:05.274Z,13.13
2019-05-22T03:05:34.642Z,10.57
2019-05-22T03:08:04.217Z,11.77
2019-05-22T03:10:34.978Z,11.40
2019-05-22T03:13:06.255Z,11.63
2019-05-22T03:15:35.614Z,11.70
2019-05-22T03:18:08.210Z,12.20
2019-05-22T03:20:40.293Z,11.57
2019-05-22T03:23:36.413Z,13.10
2019-05-22T03:26:09.769Z,13.27
2019-05-22T03:28:40.206Z,12.40
2019-05-22T03:31:10.910Z,14.03
2019-05-22T03:33:41.258Z,15.10
2019-05-22T03:36:18.051Z,17.10
2019-05-22T03:38:48.774Z,13.77
2019-05-22T03:41:18.829Z,14.83
2019-05-22T03:43:50.733Z,15.50
2019-05-22T03:46:36.014Z,21.30
2019-05-22T03:49:06.042Z,24.47
2019-05-22T03:51:36.204Z,28.23
2019-05-22T03:54:06.530Z,25.23
2019-05-22T03:56:42.549Z,31.10
2019-05-22T03:59:12.514Z,34.00
2019-05-22T04:01:42.866Z,41.07
2019-05-22T04:04:13.912Z,34.47
2019-05-22T04:06:44.851Z,34.87
2019-05-22T04:09:22.968Z,36.93
2019-05-22T04:11:53.636Z,26.90
2019-05-22T04:14:27.685Z,24.07
2019-05-22T04:16:58.508Z,19.77
2019-05-22T04:19:46.727Z,17.43
2019-05-22T04:22:00.082Z,17.20
2019-05-22T04:24:29.869Z,17.87
2019-05-22T04:26:59.170Z,15.83
2019-05-22T04:29:28.508Z,16.80
2019-05-22T04:32:16.039Z,14.93
2019-05-22T04:34:47.293Z,16.00
2019-05-22T04:37:17.342Z,16.73
2019-05-22T04:39:48.787Z,15.93
2019-05-22T04:42:19.244Z,14.57
2019-05-22T04:45:15.914Z,13.57
2019-05-22T04:48:00.485Z,11.40
2019-05-22T04:50:30.336Z,11.83
2019-05-22T04:53:01.339Z,13.50
2019-05-22T04:55:33.165Z,14.27
2019-05-22T04:58:04.594Z,11.27
2019-05-22T05:00:35.123Z,15.37
2019-05-22T05:03:05.493Z,11.40
2019-05-22T05:05:38.784Z,10.37
2019-05-22T05:08:08.148Z,13.60
2019-05-22T05:10:37.515Z,13.00
2019-05-22T05:13:07.463Z,10.10
2019-05-22T05:15:37.385Z,13.63
2019-05-22T05:18:06.808Z,14.77
2019-05-22T05:20:36.111Z,14.03
2019-05-22T05:23:05.467Z,12.57
2019-05-22T05:25:34.836Z,8.97
2019-05-22T05:28:06.960Z,10.10
2019-05-22T05:30:36.451Z,14.10
2019-05-22T05:33:06.186Z,15.07
2019-05-22T05:35:36.493Z,12.73
2019-05-22T05:38:07.580Z,12.17
2019-05-22T05:40:40.330Z,13.17
2019-05-22T05:43:15.763Z,9.20
2019-05-22T05:45:48.202Z,12.63
2019-05-22T05:48:22.535Z,16.30
2019-05-22T05:51:25.649Z,10.30
2019-05-22T05:54:12.749Z,8.60
2019-05-22T05:56:43.392Z,8.77
2019-05-22T05:59:14.060Z,10.27
2019-05-22T06:01:46.385Z,9.03
2019-05-22T06:04:33.908Z,11.73
2019-05-22T06:07:20.037Z,7.50
2019-05-22T06:10:21.276Z,7.73
2019-05-22T06:12:51.627Z,11.93
2019-05-22T06:15:24.586Z,8.23
2019-05-22T06:18:32.628Z,8.07
2019-05-22T06:21:04.282Z,7.03
2019-05-22T06:24:33.087Z,7.00
2019-05-22T06:27:08.922Z,6.63
2019-05-22T06:29:55.771Z,5.30
2019-05-22T06:32:48.884Z,4.40
2019-05-22T06:35:18.944Z,6.00
2019-05-22T06:38:00.730Z,3.90
2019-05-22T06:40:30.806Z,3.77
2019-05-22T06:43:58.303Z,5.03
2019-05-22T06:46:47.765Z,2.00
2019-05-22T06:49:45.581Z,2.40
2019-05-22T06:52:16.003Z,2.83
2019-05-22T06:54:45.675Z,3.50
2019-05-22T06:57:20.697Z,3.20
2019-05-22T07:00:11.286Z,2.70
2019-05-22T07:02:25.483Z,2.50
2019-05-22T07:04:54.945Z,2.50
2019-05-22T07:07:28.712Z,3.70
2019-05-22T07:09:58.381Z,4.80
2019-05-22T07:12:29.098Z,4.33
2019-05-22T07:15:28.529Z,2.60
2019-05-22T07:17:58.761Z,2.57
2019-05-22T07:20:31.053Z,1.93
2019-05-22T07:23:01.873Z,2.57
2019-05-22T07:25:33.107Z,2.63
2019-05-22T07:28:03.605Z,3.03
2019-05-22T07:30:33.769Z,2.63
2019-05-22T07:33:03.973Z,3.23
2019-05-22T07:35:46.085Z,3.60
2019-05-22T07:38:04.667Z,1.83
2019-05-22T07:40:35.564Z,4.20
2019-05-22T07:43:05.779Z,1.73
2019-05-22T07:45:36.085Z,3.67
2019-05-22T07:48:07.559Z,2.63
2019-05-22T07:50:40.780Z,3.03
2019-05-22T07:53:10.753Z,3.63
2019-05-22T07:55:41.526Z,3.40
2019-05-22T07:58:19.074Z,3.77
2019-05-22T08:01:00.601Z,1.77
2019-05-22T08:03:31.807Z,3.43
2019-05-22T08:06:03.030Z,2.43
2019-05-22T08:08:35.482Z,3.17
2019-05-22T08:11:06.461Z,2.70
2019-05-22T08:13:36.055Z,2.47
2019-05-22T08:16:05.681Z,2.30
2019-05-22T08:18:38.869Z,3.43
2019-05-22T08:21:09.137Z,3.50
2019-05-22T08:23:38.937Z,2.53
2019-05-22T08:26:10.796Z,2.03
2019-05-22T08:28:40.975Z,3.40
2019-05-22T08:31:11.023Z,3.40
2019-05-22T08:33:40.648Z,4.43
2019-05-22T08:36:10.580Z,2.50
2019-05-22T08:38:41.453Z,2.27
2019-05-22T08:41:11.009Z,6.10
2019-05-22T08:44:11.461Z,2.40
2019-05-22T08:46:13.207Z,2.30
2019-05-22T08:48:47.769Z,1.93
2019-05-22T08:51:15.048Z,4.37
2019-05-22T08:53:48.090Z,4.47
2019-05-22T08:56:16.404Z,3.20
2019-05-22T08:58:46.343Z,3.23
2019-05-22T09:01:16.311Z,2.67
2019-05-22T09:03:46.583Z,2.27
2019-05-22T09:06:16.364Z,4.90
2019-05-22T09:08:46.167Z,2.97
2019-05-22T09:11:15.734Z,3.23
2019-05-22T09:13:45.214Z,4.00
2019-05-22T09:16:15.093Z,3.17
2019-05-22T09:18:44.622Z,2.77
2019-05-22T09:21:14.201Z,2.60
2019-05-22T09:23:44.766Z,3.50
2019-05-22T09:26:14.348Z,3.27
2019-05-22T09:28:43.729Z,3.67
2019-05-22T09:31:13.186Z,3.53
2019-05-22T09:33:42.591Z,3.47
2019-05-22T09:36:12.075Z,3.50
2019-05-22T09:38:41.616Z,3.97
2019-05-22T09:41:11.175Z,3.77
2019-05-22T09:43:40.464Z,6.07
2019-05-22T09:46:11.003Z,4.30
2019-05-22T09:48:40.857Z,4.47
2019-05-22T09:51:10.162Z,5.57
2019-05-22T09:53:39.630Z,7.40
2019-05-22T09:56:09.002Z,5.27
2019-05-22T09:58:38.271Z,6.97
2019-05-22T10:01:11.720Z,5.20
2019-05-22T10:03:39.838Z,5.67
2019-05-22T10:06:09.378Z,6.97
2019-05-22T10:08:38.794Z,4.20
2019-05-22T10:11:08.901Z,5.30
2019-05-22T10:13:38.847Z,7.47
2019-05-22T10:16:08.151Z,3.93
2019-05-22T10:18:37.980Z,6.20
2019-05-22T10:21:07.708Z,5.20
2019-05-22T10:23:37.142Z,3.63
2019-05-22T10:26:06.635Z,3.73
2019-05-22T10:28:36.824Z,4.90
2019-05-22T10:31:07.894Z,4.60
2019-05-22T10:33:38.539Z,5.43
2019-05-22T10:36:08.051Z,4.67
2019-05-22T10:38:37.454Z,5.00
2019-05-22T10:41:06.929Z,4.07
2019-05-22T10:43:36.658Z,5.17
2019-05-22T10:46:07.830Z,4.67
2019-05-22T10:48:40.260Z,4.03
2019-05-22T10:51:08.498Z,4.93
2019-05-22T10:53:39.360Z,4.30
2019-05-22T10:56:08.930Z,4.47
2019-05-22T10:58:38.402Z,3.90
2019-05-22T11:01:09.040Z,4.47
2019-05-22T11:03:38.829Z,5.90
2019-05-22T11:06:08.773Z,3.83
2019-05-22T11:08:39.490Z,3.73
2019-05-22T11:11:10.315Z,3.43
2019-05-22T11:13:40.534Z,3.30
2019-05-22T11:16:10.746Z,3.33
2019-05-22T11:18:40.913Z,3.47
2019-05-22T11:21:10.523Z,3.40
2019-05-22T11:23:51.480Z,3.03
2019-05-22T11:26:11.727Z,3.23
2019-05-22T11:28:41.265Z,5.30
2019-05-22T11:31:10.951Z,2.33
2019-05-22T11:33:40.869Z,5.20
2019-05-22T11:36:10.802Z,3.55
2019-05-22T11:38:40.053Z,2.90
2019-05-22T11:41:11.349Z,2.40
2019-05-22T11:43:40.764Z,3.50
2019-05-22T11:46:10.073Z,2.80
2019-05-22T11:48:39.353Z,5.28
2019-05-22T11:51:08.944Z,3.00
2019-05-22T11:53:38.213Z,3.25
2019-05-22T11:56:07.544Z,3.17
2019-05-22T11:58:36.913Z,2.47
2019-05-22T12:01:06.666Z,2.40
2019-05-22T12:03:36.030Z,4.20
2019-05-22T12:06:06.521Z,3.47
2019-05-22T12:08:36.165Z,2.30
2019-05-22T12:11:05.899Z,4.72
2019-05-22T12:13:35.642Z,2.85
2019-05-22T12:16:06.217Z,2.70
2019-05-22T12:18:36.320Z,5.78
2019-05-22T12:21:06.683Z,1.95
2019-05-22T12:23:36.165Z,3.15
2019-05-22T12:26:05.836Z,1.57
2019-05-22T12:28:35.204Z,2.20
2019-05-22T12:31:05.021Z,2.85
2019-05-22T12:33:34.984Z,1.52
2019-05-22T12:36:06.440Z,3.10
2019-05-22T12:38:36.214Z,3.12
2019-05-22T12:41:06.240Z,2.33
2019-05-22T12:43:35.531Z,4.42
2019-05-22T12:46:04.819Z,2.42
2019-05-22T12:48:34.732Z,3.22
2019-05-22T12:51:04.930Z,3.27
2019-05-22T12:53:34.860Z,2.52
2019-05-22T12:56:04.649Z,4.22
2019-05-22T12:58:34.231Z,2.20
2019-05-22T13:01:04.393Z,3.15
2019-05-22T13:03:36.342Z,5.10
2019-05-22T13:06:07.679Z,2.05
2019-05-22T13:08:37.921Z,2.02
2019-05-22T13:11:07.840Z,2.62
2019-05-22T13:13:37.543Z,1.98
2019-05-22T13:16:08.547Z,2.17
2019-05-22T13:18:39.232Z,2.58
2019-05-22T13:21:12.455Z,2.47
2019-05-22T13:23:45.152Z,3.90
2019-05-22T13:26:15.936Z,2.87
2019-05-22T13:28:47.116Z,3.65
2019-05-22T13:31:17.449Z,2.67
2019-05-22T13:33:47.615Z,2.67
2019-05-22T13:36:19.585Z,1.85
2019-05-22T13:38:49.482Z,2.42
2019-05-22T13:41:19.111Z,1.60
2019-05-22T13:43:49.793Z,1.92
2019-05-22T13:46:19.293Z,1.72
2019-05-22T13:48:49.074Z,2.12
2019-05-22T13:51:18.863Z,1.55
2019-05-22T13:53:48.642Z,2.55
2019-05-22T13:56:18.357Z,5.55
2019-05-22T13:58:49.432Z,2.70
2019-05-22T14:01:20.511Z,2.30
2019-05-22T14:03:50.560Z,2.77
2019-05-22T14:06:20.780Z,2.58
2019-05-22T14:08:51.423Z,3.62
2019-05-22T14:11:20.701Z,2.75
2019-05-22T14:13:51.391Z,2.72
2019-05-22T14:16:22.326Z,3.62
2019-05-22T14:18:51.652Z,1.70
2019-05-22T14:21:21.807Z,2.60
2019-05-22T14:23:51.195Z,7.45
2019-05-22T14:26:20.487Z,1.80
2019-05-22T14:28:49.748Z,2.02
2019-05-22T14:31:19.476Z,3.33
2019-05-22T14:33:48.830Z,2.42
2019-05-22T14:36:19.221Z,1.60
2019-05-22T14:38:48.831Z,1.40
2019-05-22T14:41:18.142Z,3.17
2019-05-22T14:43:47.595Z,1.87
2019-05-22T14:46:17.086Z,2.25
2019-05-22T14:48:46.343Z,1.50
2019-05-22T14:51:16.591Z,1.65
2019-05-22T14:53:46.091Z,3.25
2019-05-22T14:56:15.400Z,2.12
2019-05-22T14:58:45.018Z,2.33
2019-05-22T15:01:14.683Z,1.70
2019-05-22T15:03:44.378Z,4.20
2019-05-22T15:06:15.331Z,2.65
2019-05-22T15:08:44.618Z,3.25
2019-05-22T15:11:15.378Z,3.45
2019-05-22T15:13:44.838Z,3.00
2019-05-22T15:16:15.360Z,1.35
2019-05-22T15:18:44.822Z,1.70
2019-05-22T15:21:16.455Z,1.40
2019-05-22T15:23:48.581Z,2.10
2019-05-22T15:26:18.162Z,1.87
2019-05-22T15:28:47.628Z,3.12
2019-05-22T15:31:17.645Z,2.15
2019-05-22T15:33:47.125Z,1.45
2019-05-22T15:36:19.177Z,1.75
2019-05-22T15:38:49.921Z,4.08
2019-05-22T15:41:19.475Z,2.98
2019-05-22T15:43:52.953Z,7.37
2019-05-22T15:46:21.594Z,1.72
2019-05-22T15:48:53.601Z,1.87
2019-05-22T15:51:27.301Z,3.17
2019-05-22T15:53:59.832Z,2.87
2019-05-22T15:56:31.873Z,2.05
2019-05-22T15:59:05.149Z,1.50
2019-05-22T16:01:36.226Z,1.92
2019-05-22T16:04:07.792Z,1.45
2019-05-22T16:06:38.444Z,6.10
2019-05-22T16:09:10.961Z,1.77
2019-05-22T16:11:41.397Z,4.83
2019-05-22T16:14:11.173Z,1.52
2019-05-22T16:16:40.588Z,2.65
2019-05-22T16:19:11.528Z,2.08
2019-05-22T16:21:46.022Z,1.85
2019-05-22T16:24:15.485Z,3.62
2019-05-22T16:26:45.668Z,1.90
2019-05-22T16:29:15.517Z,2.50
2019-05-22T16:31:45.796Z,4.37
2019-05-22T16:34:15.473Z,1.98
2019-05-22T16:36:46.525Z,2.72
2019-05-22T16:39:17.722Z,2.42
2019-05-22T16:41:47.380Z,3.70
2019-05-22T16:44:17.675Z,2.12
2019-05-22T16:46:48.145Z,2.30
2019-05-22T16:49:17.799Z,4.70
2019-05-22T16:51:48.960Z,2.27
2019-05-22T16:54:20.884Z,3.92
2019-05-22T16:56:49.966Z,3.60
2019-05-22T16:59:20.245Z,2.22
2019-05-22T17:01:59.924Z,3.47
2019-05-22T17:04:21.151Z,2.42
2019-05-22T17:06:50.781Z,3.12
2019-05-22T17:09:21.858Z,1.90
2019-05-22T17:11:52.065Z,2.10
2019-05-22T17:14:21.761Z,9.55
2019-05-22T17:16:51.680Z,10.95
2019-05-22T17:19:26.939Z,5.78
2019-05-22T17:21:53.839Z,14.10
2019-05-22T17:24:24.175Z,12.98
2019-05-22T17:26:53.627Z,9.98
2019-05-22T17:29:24.175Z,7.37
2019-05-22T17:31:54.212Z,10.38
2019-05-22T17:34:32.604Z,16.73
2019-05-22T17:37:06.300Z,8.98
2019-05-22T17:39:39.372Z,13.73
2019-05-22T17:42:11.936Z,14.70
2019-05-22T17:44:46.183Z,11.57
2019-05-22T17:47:16.528Z,9.38
2019-05-22T17:49:46.231Z,10.33
2019-05-22T17:52:17.908Z,8.37
2019-05-22T17:54:47.563Z,8.93
2019-05-22T17:57:18.537Z,8.70
2019-05-22T17:59:48.295Z,7.93
2019-05-22T18:02:19.324Z,8.40
2019-05-22T18:04:49.355Z,8.03
2019-05-22T18:07:19.903Z,7.97
2019-05-22T18:09:49.865Z,7.47
2019-05-22T18:12:20.060Z,8.93
2019-05-22T18:14:49.800Z,15.03
2019-05-22T18:17:19.462Z,7.10
2019-05-22T18:19:48.803Z,6.17
2019-05-22T18:22:18.610Z,7.90
2019-05-22T18:24:47.924Z,10.23
2019-05-22T18:27:17.291Z,10.20
2019-05-22T18:29:46.608Z,12.63
2019-05-22T18:32:16.546Z,10.27
2019-05-22T18:34:45.838Z,10.00
2019-05-22T18:37:15.450Z,8.30
2019-05-22T18:39:44.987Z,8.63
2019-05-22T18:42:14.279Z,8.97
2019-05-22T18:44:43.615Z,12.43
2019-05-22T18:47:13.180Z,10.50
2019-05-22T18:49:42.553Z,11.13
2019-05-22T18:52:11.892Z,10.87
2019-05-22T18:54:41.274Z,12.20
2019-05-22T18:57:10.737Z,9.23
2019-05-22T18:59:40.094Z,14.67
2019-05-22T19:02:09.787Z,17.07
2019-05-22T19:04:39.501Z,18.80
2019-05-22T19:07:08.846Z,14.37
2019-05-22T19:09:38.290Z,13.10
2019-05-22T19:12:07.589Z,11.87
2019-05-22T19:14:37.079Z,12.00
2019-05-22T19:17:06.798Z,12.33
2019-05-22T19:19:36.875Z,11.53
2019-05-22T19:22:06.219Z,14.43
2019-05-22T19:24:35.597Z,9.20
2019-05-22T19:27:04.954Z,9.97
2019-05-22T19:29:34.357Z,10.27
2019-05-22T19:32:03.738Z,15.30
2019-05-22T19:34:33.221Z,11.83
2019-05-22T19:37:03.150Z,11.77
2019-05-22T19:39:34.030Z,13.07
2019-05-22T19:42:05.720Z,14.23
2019-05-22T19:44:35.284Z,12.37
2019-05-22T19:47:06.558Z,11.80
2019-05-22T19:49:36.341Z,13.70
2019-05-22T19:52:07.474Z,14.60
2019-05-22T19:54:37.910Z,14.80
2019-05-22T19:57:08.845Z,14.43
2019-05-22T19:59:38.304Z,12.47
2019-05-22T20:02:09.761Z,15.27
2019-05-22T20:04:39.046Z,12.13
2019-05-22T20:07:09.635Z,15.43
2019-05-22T20:09:39.586Z,16.07
2019-05-22T20:12:10.093Z,15.07
2019-05-22T20:14:39.453Z,16.20
2019-05-22T20:17:08.851Z,15.73
2019-05-22T20:19:38.405Z,16.00
2019-05-22T20:22:08.498Z,18.20
2019-05-22T20:24:38.118Z,19.73
2019-05-22T20:27:09.926Z,15.93
2019-05-22T20:29:39.982Z,24.77
2019-05-22T20:32:11.973Z,17.90
2019-05-22T20:34:41.717Z,17.67
2019-05-22T20:37:11.209Z,17.93
2019-05-22T20:39:41.193Z,20.07
2019-05-22T20:42:11.341Z,17.63
2019-05-22T20:44:42.432Z,14.97
2019-05-22T20:47:11.983Z,15.40
2019-05-22T20:49:45.033Z,15.67
2019-05-22T20:52:16.753Z,15.13
2019-05-22T20:54:46.985Z,17.33
2019-05-22T20:57:19.907Z,11.10
2019-05-22T20:59:47.602Z,13.27
2019-05-22T21:02:18.609Z,14.03
2019-05-22T21:04:50.528Z,12.93
2019-05-22T21:07:26.612Z,12.87
2019-05-22T21:09:57.284Z,12.43
2019-05-22T21:12:28.131Z,14.00
2019-05-22T21:14:57.624Z,12.63
2019-05-22T21:17:28.884Z,14.80
2019-05-22T21:19:59.392Z,17.53
2019-05-22T21:22:30.284Z,17.17
2019-05-22T21:25:00.438Z,20.83
2019-05-22T21:27:29.896Z,16.37
2019-05-22T21:29:59.649Z,20.63
2019-05-22T21:32:29.212Z,22.93
2019-05-22T21:34:58.877Z,20.07
2019-05-22T21:37:28.193Z,26.33
2019-05-22T21:39:57.479Z,21.37
2019-05-22T21:42:26.879Z,18.70
2019-05-22T21:44:57.028Z,21.93
2019-05-22T21:47:26.368Z,20.13
2019-05-22T21:49:55.780Z,20.50
2019-05-22T21:52:25.278Z,17.90
2019-05-22T21:54:54.619Z,19.60
2019-05-22T21:57:24.207Z,18.93
2019-05-22T21:59:53.627Z,23.30
2019-05-22T22:02:30.953Z,20.27
2019-05-22T22:05:00.300Z,23.13
2019-05-22T22:07:30.655Z,20.10
2019-05-22T22:10:00.507Z,22.53
2019-05-22T22:12:31.010Z,19.20
2019-05-22T22:15:00.351Z,21.67
2019-05-22T22:17:30.451Z,22.23
2019-05-22T22:19:59.711Z,21.10
2019-05-22T22:22:29.593Z,18.60
2019-05-22T22:24:59.707Z,18.20
2019-05-22T22:27:30.444Z,16.73
2019-05-22T22:30:01.196Z,23.90
2019-05-22T22:32:32.383Z,18.37
2019-05-22T22:35:01.837Z,16.57
2019-05-22T22:37:32.219Z,22.80
2019-05-22T22:40:02.849Z,20.17
2019-05-22T22:42:36.844Z,23.47
2019-05-22T22:45:07.665Z,17.47
2019-05-22T22:47:44.183Z,17.30
2019-05-22T22:50:16.608Z,16.17
2019-05-22T22:52:46.966Z,17.03
2019-05-22T22:55:18.967Z,16.40
2019-05-22T22:57:49.712Z,15.77
2019-05-22T23:00:25.330Z,19.05
2019-05-22T23:02:57.168Z,19.83
2019-05-22T23:05:27.342Z,20.13
2019-05-22T23:07:56.990Z,18.80
2019-05-22T23:10:26.274Z,17.23
2019-05-22T23:12:56.802Z,18.50
2019-05-22T23:15:27.522Z,17.47
2019-05-22T23:17:56.845Z,17.90
2019-05-22T23:20:24.538Z,18.60
2019-05-22T23:22:52.311Z,17.43
2019-05-22T23:25:23.233Z,18.63
2019-05-22T23:27:53.249Z,19.37
2019-05-22T23:30:22.967Z,16.10
2019-05-22T23:32:54.389Z,17.70
2019-05-22T23:35:24.701Z,16.17
2019-05-22T23:37:54.982Z,16.83
2019-05-22T23:40:28.370Z,18.73
2019-05-22T23:42:59.354Z,17.60
2019-05-22T23:45:29.207Z,16.93
2019-05-22T23:48:03.571Z,19.93
2019-05-22T23:50:35.343Z,17.90
2019-05-22T23:53:05.848Z,18.70
2019-05-22T23:55:37.117Z,15.93
2019-05-22T23:58:08.761Z,17.90
